sensor_id;sensor_type;location;lat;lon;timestamp;temperature;humidity
34640;DHT22;22600;48.186;11.526;2023-03-04T00:01:03;21.50;52.70
34640;DHT22;22600;48.186;11.526;2023-03-04T00:03:29;21.50;52.60
34640;DHT22;22600;48.186;11.526;2023-03-04T00:05:54;21.50;53.10
34640;DHT22;22600;48.186;11.526;2023-03-04T00:08:20;21.50;53.20
34640;DHT22;22600;48.186;11.526;2023-03-04T00:10:45;21.50;52.70
34640;DHT22;22600;48.186;11.526;2023-03-04T00:13:11;21.50;52.60
34640;DHT22;22600;48.186;11.526;2023-03-04T00:15:37;21.50;52.60
34640;DHT22;22600;48.186;11.526;2023-03-04T00:18:02;21.50;52.60
34640;DHT22;22600;48.186;11.526;2023-03-04T00:20:28;21.50;52.60
34640;DHT22;22600;48.186;11.526;2023-03-04T00:22:53;21.50;53.10
34640;DHT22;22600;48.186;11.526;2023-03-04T00:25:19;21.50;53.10
34640;DHT22;22600;48.186;11.526;2023-03-04T00:27:44;21.50;52.60
34640;DHT22;22600;48.186;11.526;2023-03-04T00:30:10;21.50;52.60
34640;DHT22;22600;48.186;11.526;2023-03-04T00:32:36;21.50;52.60
34640;DHT22;22600;48.186;11.526;2023-03-04T00:35:01;21.50;53.10
34640;DHT22;22600;48.186;11.526;2023-03-04T00:37:27;21.50;53.00
34640;DHT22;22600;48.186;11.526;2023-03-04T00:39:52;21.50;53.00
34640;DHT22;22600;48.186;11.526;2023-03-04T00:42:18;21.50;52.50
34640;DHT22;22600;48.186;11.526;2023-03-04T00:44:43;21.50;53.00
34640;DHT22;22600;48.186;11.526;2023-03-04T00:47:09;21.50;53.00
34640;DHT22;22600;48.186;11.526;2023-03-04T00:49:34;21.50;52.50
34640;DHT22;22600;48.186;11.526;2023-03-04T00:52:02;21.50;53.00
34640;DHT22;22600;48.186;11.526;2023-03-04T00:54:27;21.50;52.50
34640;DHT22;22600;48.186;11.526;2023-03-04T00:56:53;21.50;53.00
34640;DHT22;22600;48.186;11.526;2023-03-04T00:59:18;21.50;53.00
34640;DHT22;22600;48.186;11.526;2023-03-04T01:01:44;21.50;52.90
34640;DHT22;22600;48.186;11.526;2023-03-04T01:04:10;21.50;52.50
34640;DHT22;22600;48.186;11.526;2023-03-04T01:06:35;21.50;52.50
34640;DHT22;22600;48.186;11.526;2023-03-04T01:09:01;21.50;53.00
34640;DHT22;22600;48.186;11.526;2023-03-04T01:11:26;21.50;52.50
34640;DHT22;22600;48.186;11.526;2023-03-04T01:13:52;21.50;52.50
34640;DHT22;22600;48.186;11.526;2023-03-04T01:16:18;21.50;53.00
34640;DHT22;22600;48.186;11.526;2023-03-04T01:18:43;21.50;52.50
34640;DHT22;22600;48.186;11.526;2023-03-04T01:21:09;21.50;52.50
34640;DHT22;22600;48.186;11.526;2023-03-04T01:23:35;21.50;53.00
34640;DHT22;22600;48.186;11.526;2023-03-04T01:26:00;21.50;52.50
34640;DHT22;22600;48.186;11.526;2023-03-04T01:28:26;21.50;52.50
34640;DHT22;22600;48.186;11.526;2023-03-04T01:30:51;21.40;52.40
34640;DHT22;22600;48.186;11.526;2023-03-04T01:33:17;21.50;52.40
34640;DHT22;22600;48.186;11.526;2023-03-04T01:35:42;21.50;53.00
34640;DHT22;22600;48.186;11.526;2023-03-04T01:38:08;21.50;53.00
34640;DHT22;22600;48.186;11.526;2023-03-04T01:40:34;21.50;53.00
34640;DHT22;22600;48.186;11.526;2023-03-04T01:42:59;21.50;52.60
34640;DHT22;22600;48.186;11.526;2023-03-04T01:45:25;21.50;52.50
34640;DHT22;22600;48.186;11.526;2023-03-04T01:47:50;21.50;52.50
34640;DHT22;22600;48.186;11.526;2023-03-04T01:50:36;21.50;53.00
34640;DHT22;22600;48.186;11.526;2023-03-04T01:53:02;21.50;52.50
34640;DHT22;22600;48.186;11.526;2023-03-04T01:55:29;21.50;52.40
34640;DHT22;22600;48.186;11.526;2023-03-04T01:57:56;21.50;52.90
34640;DHT22;22600;48.186;11.526;2023-03-04T02:00:33;21.50;52.40
34640;DHT22;22600;48.186;11.526;2023-03-04T02:03:10;21.40;52.80
34640;DHT22;22600;48.186;11.526;2023-03-04T02:05:41;21.50;52.80
34640;DHT22;22600;48.186;11.526;2023-03-04T02:08:07;21.50;52.90
34640;DHT22;22600;48.186;11.526;2023-03-04T02:10:33;21.40;52.30
34640;DHT22;22600;48.186;11.526;2023-03-04T02:13:00;21.50;52.30
34640;DHT22;22600;48.186;11.526;2023-03-04T02:15:26;21.50;52.80
34640;DHT22;22600;48.186;11.526;2023-03-04T02:17:52;21.50;52.80
34640;DHT22;22600;48.186;11.526;2023-03-04T02:21:10;21.50;52.90
34640;DHT22;22600;48.186;11.526;2023-03-04T02:23:40;21.40;52.30
34640;DHT22;22600;48.186;11.526;2023-03-04T02:28:34;21.40;52.80
34640;DHT22;22600;48.186;11.526;2023-03-04T02:30:59;22.80;52.90
34640;DHT22;22600;48.186;11.526;2023-03-04T02:33:25;21.50;52.30
34640;DHT22;22600;48.186;11.526;2023-03-04T02:35:51;21.50;52.30
34640;DHT22;22600;48.186;11.526;2023-03-04T02:38:16;21.50;52.80
34640;DHT22;22600;48.186;11.526;2023-03-04T02:40:45;21.50;52.30
34640;DHT22;22600;48.186;11.526;2023-03-04T02:43:12;21.40;52.70
34640;DHT22;22600;48.186;11.526;2023-03-04T02:45:48;21.50;52.80
34640;DHT22;22600;48.186;11.526;2023-03-04T02:48:17;21.50;52.30
34640;DHT22;22600;48.186;11.526;2023-03-04T02:50:48;21.50;52.80
34640;DHT22;22600;48.186;11.526;2023-03-04T02:53:15;21.50;52.30
34640;DHT22;22600;48.186;11.526;2023-03-04T02:55:41;21.50;52.80
34640;DHT22;22600;48.186;11.526;2023-03-04T02:58:08;21.40;52.20
34640;DHT22;22600;48.186;11.526;2023-03-04T03:00:34;21.50;52.70
34640;DHT22;22600;48.186;11.526;2023-03-04T03:03:00;21.40;52.20
34640;DHT22;22600;48.186;11.526;2023-03-04T03:05:27;21.40;52.10
34640;DHT22;22600;48.186;11.526;2023-03-04T03:07:53;21.40;52.70
34640;DHT22;22600;48.186;11.526;2023-03-04T03:10:19;21.40;52.20
34640;DHT22;22600;48.186;11.526;2023-03-04T03:12:45;21.50;52.30
34640;DHT22;22600;48.186;11.526;2023-03-04T03:15:10;21.50;52.80
34640;DHT22;22600;48.186;11.526;2023-03-04T03:17:36;21.40;52.10
34640;DHT22;22600;48.186;11.526;2023-03-04T03:20:03;21.40;52.20
34640;DHT22;22600;48.186;11.526;2023-03-04T03:22:28;21.40;52.20
34640;DHT22;22600;48.186;11.526;2023-03-04T03:24:54;21.50;52.20
34640;DHT22;22600;48.186;11.526;2023-03-04T03:27:19;21.40;52.60
34640;DHT22;22600;48.186;11.526;2023-03-04T03:29:45;21.50;52.10
34640;DHT22;22600;48.186;11.526;2023-03-04T03:32:10;21.50;52.70
34640;DHT22;22600;48.186;11.526;2023-03-04T03:34:36;21.40;52.60
34640;DHT22;22600;48.186;11.526;2023-03-04T03:37:01;21.50;52.20
34640;DHT22;22600;48.186;11.526;2023-03-04T03:39:27;21.40;52.20
34640;DHT22;22600;48.186;11.526;2023-03-04T03:41:53;21.40;52.10
34640;DHT22;22600;48.186;11.526;2023-03-04T03:44:18;21.50;52.30
34640;DHT22;22600;48.186;11.526;2023-03-04T03:46:44;21.50;52.10
34640;DHT22;22600;48.186;11.526;2023-03-04T03:49:11;21.40;52.60
34640;DHT22;22600;48.186;11.526;2023-03-04T03:51:37;21.40;52.10
34640;DHT22;22600;48.186;11.526;2023-03-04T03:54:02;21.40;52.10
34640;DHT22;22600;48.186;11.526;2023-03-04T03:56:28;21.40;52.60
34640;DHT22;22600;48.186;11.526;2023-03-04T03:58:54;21.50;52.60
34640;DHT22;22600;48.186;11.526;2023-03-04T04:01:19;21.50;52.20
34640;DHT22;22600;48.186;11.526;2023-03-04T04:03:45;21.40;52.10
34640;DHT22;22600;48.186;11.526;2023-03-04T04:06:10;21.40;52.60
34640;DHT22;22600;48.186;11.526;2023-03-04T04:08:36;21.40;52.00
34640;DHT22;22600;48.186;11.526;2023-03-04T04:11:02;21.40;52.00
34640;DHT22;22600;48.186;11.526;2023-03-04T04:13:27;21.40;52.10
34640;DHT22;22600;48.186;11.526;2023-03-04T04:15:53;21.40;52.60
34640;DHT22;22600;48.186;11.526;2023-03-04T04:18:18;21.40;52.10
34640;DHT22;22600;48.186;11.526;2023-03-04T04:20:45;21.40;52.10
34640;DHT22;22600;48.186;11.526;2023-03-04T04:23:11;21.40;52.50
34640;DHT22;22600;48.186;11.526;2023-03-04T04:25:36;21.40;52.50
34640;DHT22;22600;48.186;11.526;2023-03-04T04:28:02;21.40;52.10
34640;DHT22;22600;48.186;11.526;2023-03-04T04:30:28;21.50;52.10
34640;DHT22;22600;48.186;11.526;2023-03-04T04:32:53;21.40;52.10
34640;DHT22;22600;48.186;11.526;2023-03-04T04:35:19;21.40;52.50
34640;DHT22;22600;48.186;11.526;2023-03-04T04:37:45;21.40;52.00
34640;DHT22;22600;48.186;11.526;2023-03-04T04:40:11;21.40;52.50
34640;DHT22;22600;48.186;11.526;2023-03-04T04:42:36;21.40;52.00
34640;DHT22;22600;48.186;11.526;2023-03-04T04:45:02;21.40;52.00
34640;DHT22;22600;48.186;11.526;2023-03-04T04:47:28;21.40;52.50
34640;DHT22;22600;48.186;11.526;2023-03-04T04:49:53;21.40;52.10
34640;DHT22;22600;48.186;11.526;2023-03-04T04:52:19;21.40;52.50
34640;DHT22;22600;48.186;11.526;2023-03-04T04:54:45;21.40;52.00
34640;DHT22;22600;48.186;11.526;2023-03-04T04:57:10;21.40;52.00
34640;DHT22;22600;48.186;11.526;2023-03-04T04:59:36;21.40;52.50
34640;DHT22;22600;48.186;11.526;2023-03-04T05:02:01;21.40;52.50
34640;DHT22;22600;48.186;11.526;2023-03-04T05:04:27;21.40;52.50
34640;DHT22;22600;48.186;11.526;2023-03-04T05:06:52;21.40;52.00
34640;DHT22;22600;48.186;11.526;2023-03-04T05:09:18;21.40;52.50
34640;DHT22;22600;48.186;11.526;2023-03-04T05:11:45;21.40;52.00
34640;DHT22;22600;48.186;11.526;2023-03-04T05:14:10;21.40;52.00
34640;DHT22;22600;48.186;11.526;2023-03-04T05:16:36;21.50;52.50
34640;DHT22;22600;48.186;11.526;2023-03-04T05:19:02;21.30;51.90
34640;DHT22;22600;48.186;11.526;2023-03-04T05:21:27;21.40;52.00
34640;DHT22;22600;48.186;11.526;2023-03-04T05:26:19;21.40;51.90
34640;DHT22;22600;48.186;11.526;2023-03-04T05:28:45;21.40;52.40
34640;DHT22;22600;48.186;11.526;2023-03-04T05:31:11;21.40;52.40
34640;DHT22;22600;48.186;11.526;2023-03-04T05:33:37;21.40;52.00
34640;DHT22;22600;48.186;11.526;2023-03-04T05:36:04;21.40;52.00
34640;DHT22;22600;48.186;11.526;2023-03-04T05:38:30;21.40;52.40
34640;DHT22;22600;48.186;11.526;2023-03-04T05:40:58;21.50;52.50
34640;DHT22;22600;48.186;11.526;2023-03-04T05:43:25;21.40;52.40
34640;DHT22;22600;48.186;11.526;2023-03-04T05:45:52;21.40;52.00
34640;DHT22;22600;48.186;11.526;2023-03-04T05:48:18;21.40;51.90
34640;DHT22;22600;48.186;11.526;2023-03-04T05:50:43;21.40;52.00
34640;DHT22;22600;48.186;11.526;2023-03-04T05:53:09;21.40;51.90
34640;DHT22;22600;48.186;11.526;2023-03-04T05:55:35;21.40;52.40
34640;DHT22;22600;48.186;11.526;2023-03-04T05:58:00;21.40;51.90
34640;DHT22;22600;48.186;11.526;2023-03-04T06:00:26;21.40;52.00
34640;DHT22;22600;48.186;11.526;2023-03-04T06:02:52;21.40;52.40
34640;DHT22;22600;48.186;11.526;2023-03-04T06:05:18;21.40;51.90
34640;DHT22;22600;48.186;11.526;2023-03-04T06:07:44;21.40;52.00
34640;DHT22;22600;48.186;11.526;2023-03-04T06:10:12;21.40;52.40
34640;DHT22;22600;48.186;11.526;2023-03-04T06:12:38;21.40;52.40
34640;DHT22;22600;48.186;11.526;2023-03-04T06:15:04;21.40;51.90
34640;DHT22;22600;48.186;11.526;2023-03-04T06:17:30;21.40;51.90
34640;DHT22;22600;48.186;11.526;2023-03-04T06:19:56;21.40;51.80
34640;DHT22;22600;48.186;11.526;2023-03-04T06:22:21;21.40;51.80
34640;DHT22;22600;48.186;11.526;2023-03-04T06:24:47;21.40;52.30
34640;DHT22;22600;48.186;11.526;2023-03-04T06:27:12;21.40;51.90
34640;DHT22;22600;48.186;11.526;2023-03-04T06:29:38;21.40;51.90
34640;DHT22;22600;48.186;11.526;2023-03-04T06:32:04;21.40;51.80
34640;DHT22;22600;48.186;11.526;2023-03-04T06:34:30;21.50;52.00
34640;DHT22;22600;48.186;11.526;2023-03-04T06:36:58;21.40;51.90
34640;DHT22;22600;48.186;11.526;2023-03-04T06:39:24;21.40;52.30
34640;DHT22;22600;48.186;11.526;2023-03-04T06:41:50;21.40;51.80
34640;DHT22;22600;48.186;11.526;2023-03-04T06:44:16;21.40;52.30
34640;DHT22;22600;48.186;11.526;2023-03-04T06:46:41;21.40;51.80
34640;DHT22;22600;48.186;11.526;2023-03-04T06:49:07;21.40;51.80
34640;DHT22;22600;48.186;11.526;2023-03-04T06:51:33;21.40;52.30
34640;DHT22;22600;48.186;11.526;2023-03-04T06:53:58;21.40;52.30
34640;DHT22;22600;48.186;11.526;2023-03-04T06:56:24;21.50;52.40
34640;DHT22;22600;48.186;11.526;2023-03-04T06:58:49;21.50;52.40
34640;DHT22;22600;48.186;11.526;2023-03-04T07:01:21;21.40;51.90
34640;DHT22;22600;48.186;11.526;2023-03-04T07:03:49;21.40;52.30
34640;DHT22;22600;48.186;11.526;2023-03-04T07:06:17;21.40;52.40
34640;DHT22;22600;48.186;11.526;2023-03-04T07:08:44;21.50;52.40
34640;DHT22;22600;48.186;11.526;2023-03-04T07:11:10;21.50;52.00
34640;DHT22;22600;48.186;11.526;2023-03-04T07:13:36;21.40;52.30
34640;DHT22;22600;48.186;11.526;2023-03-04T07:16:07;21.40;51.80
34640;DHT22;22600;48.186;11.526;2023-03-04T07:18:32;21.50;52.40
34640;DHT22;22600;48.186;11.526;2023-03-04T07:20:58;21.50;51.90
34640;DHT22;22600;48.186;11.526;2023-03-04T07:23:24;21.50;52.30
34640;DHT22;22600;48.186;11.526;2023-03-04T07:25:50;21.50;51.80
34640;DHT22;22600;48.186;11.526;2023-03-04T07:28:16;21.50;51.80
34640;DHT22;22600;48.186;11.526;2023-03-04T07:30:41;21.50;51.80
34640;DHT22;22600;48.186;11.526;2023-03-04T07:33:07;21.40;52.30
34640;DHT22;22600;48.186;11.526;2023-03-04T07:35:32;21.50;51.80
34640;DHT22;22600;48.186;11.526;2023-03-04T07:37:58;21.50;51.90
34640;DHT22;22600;48.186;11.526;2023-03-04T07:42:51;21.50;51.80
34640;DHT22;22600;48.186;11.526;2023-03-04T07:45:16;21.50;52.30
34640;DHT22;22600;48.186;11.526;2023-03-04T07:47:42;21.50;51.80
34640;DHT22;22600;48.186;11.526;2023-03-04T07:50:08;21.50;52.20
34640;DHT22;22600;48.186;11.526;2023-03-04T07:52:37;21.50;51.70
34640;DHT22;22600;48.186;11.526;2023-03-04T07:55:03;21.50;51.70
34640;DHT22;22600;48.186;11.526;2023-03-04T07:57:29;21.50;52.20
34640;DHT22;22600;48.186;11.526;2023-03-04T07:59:54;21.60;51.80
34640;DHT22;22600;48.186;11.526;2023-03-04T08:02:20;21.60;52.30
34640;DHT22;22600;48.186;11.526;2023-03-04T08:04:46;21.60;52.30
34640;DHT22;22600;48.186;11.526;2023-03-04T08:07:11;21.50;52.20
34640;DHT22;22600;48.186;11.526;2023-03-04T08:09:37;21.60;51.80
34640;DHT22;22600;48.186;11.526;2023-03-04T08:12:03;21.60;51.80
34640;DHT22;22600;48.186;11.526;2023-03-04T08:14:28;21.60;51.70
34640;DHT22;22600;48.186;11.526;2023-03-04T08:16:54;21.60;52.20
34640;DHT22;22600;48.186;11.526;2023-03-04T08:19:19;21.60;51.70
34640;DHT22;22600;48.186;11.526;2023-03-04T08:24:11;21.70;51.80
34640;DHT22;22600;48.186;11.526;2023-03-04T08:26:39;21.60;51.80
34640;DHT22;22600;48.186;11.526;2023-03-04T08:29:08;21.70;51.80
34640;DHT22;22600;48.186;11.526;2023-03-04T08:31:34;21.70;51.70
34640;DHT22;22600;48.186;11.526;2023-03-04T08:34:02;21.70;51.80
34640;DHT22;22600;48.186;11.526;2023-03-04T08:36:28;21.70;51.70
34640;DHT22;22600;48.186;11.526;2023-03-04T08:38:53;21.70;52.20
34640;DHT22;22600;48.186;11.526;2023-03-04T08:41:19;21.90;51.80
34640;DHT22;22600;48.186;11.526;2023-03-04T08:43:45;21.70;51.70
34640;DHT22;22600;48.186;11.526;2023-03-04T08:46:10;21.70;52.20
34640;DHT22;22600;48.186;11.526;2023-03-04T08:48:36;21.70;51.60
34640;DHT22;22600;48.186;11.526;2023-03-04T08:51:10;21.70;51.70
34640;DHT22;22600;48.186;11.526;2023-03-04T08:53:37;21.70;52.20
34640;DHT22;22600;48.186;11.526;2023-03-04T08:56:03;21.70;52.10
34640;DHT22;22600;48.186;11.526;2023-03-04T08:58:29;21.80;52.10
34640;DHT22;22600;48.186;11.526;2023-03-04T09:00:54;21.80;51.60
34640;DHT22;22600;48.186;11.526;2023-03-04T09:03:20;21.70;51.60
34640;DHT22;22600;48.186;11.526;2023-03-04T09:05:46;21.80;51.60
34640;DHT22;22600;48.186;11.526;2023-03-04T09:08:13;21.70;52.10
34640;DHT22;22600;48.186;11.526;2023-03-04T09:10:39;21.80;51.60
34640;DHT22;22600;48.186;11.526;2023-03-04T09:13:05;21.80;51.60
34640;DHT22;22600;48.186;11.526;2023-03-04T09:15:32;21.80;51.50
34640;DHT22;22600;48.186;11.526;2023-03-04T09:18:01;21.80;51.60
34640;DHT22;22600;48.186;11.526;2023-03-04T09:20:27;21.80;51.60
34640;DHT22;22600;48.186;11.526;2023-03-04T09:22:53;21.80;52.00
34640;DHT22;22600;48.186;11.526;2023-03-04T09:25:18;21.80;52.10
34640;DHT22;22600;48.186;11.526;2023-03-04T09:27:44;21.80;51.50
34640;DHT22;22600;48.186;11.526;2023-03-04T09:30:10;21.90;52.10
34640;DHT22;22600;48.186;11.526;2023-03-04T09:32:36;21.90;51.50
34640;DHT22;22600;48.186;11.526;2023-03-04T09:35:02;21.90;51.50
34640;DHT22;22600;48.186;11.526;2023-03-04T09:37:28;21.90;52.00
34640;DHT22;22600;48.186;11.526;2023-03-04T09:39:53;21.90;52.00
34640;DHT22;22600;48.186;11.526;2023-03-04T09:42:26;21.90;51.50
34640;DHT22;22600;48.186;11.526;2023-03-04T09:44:53;21.80;52.00
34640;DHT22;22600;48.186;11.526;2023-03-04T09:47:20;21.90;52.00
34640;DHT22;22600;48.186;11.526;2023-03-04T09:50:02;21.90;51.50
34640;DHT22;22600;48.186;11.526;2023-03-04T09:52:49;21.90;52.00
34640;DHT22;22600;48.186;11.526;2023-03-04T09:55:24;21.90;51.40
34640;DHT22;22600;48.186;11.526;2023-03-04T10:05:41;21.90;52.50
34640;DHT22;22600;48.186;11.526;2023-03-04T10:10:55;21.90;51.90
34640;DHT22;22600;48.186;11.526;2023-03-04T10:13:30;21.90;51.80
34640;DHT22;22600;48.186;11.526;2023-03-04T10:15:58;21.90;51.30
34640;DHT22;22600;48.186;11.526;2023-03-04T10:18:36;21.90;51.80
34640;DHT22;22600;48.186;11.526;2023-03-04T10:21:38;22.00;51.90
34640;DHT22;22600;48.186;11.526;2023-03-04T10:24:13;22.00;51.90
34640;DHT22;22600;48.186;11.526;2023-03-04T10:26:44;22.00;51.40
34640;DHT22;22600;48.186;11.526;2023-03-04T10:29:18;22.00;51.80
34640;DHT22;22600;48.186;11.526;2023-03-04T10:31:45;22.00;51.80
34640;DHT22;22600;48.186;11.526;2023-03-04T10:34:12;22.00;51.80
34640;DHT22;22600;48.186;11.526;2023-03-04T10:36:58;22.00;51.80
34640;DHT22;22600;48.186;11.526;2023-03-04T10:39:30;22.00;51.30
34640;DHT22;22600;48.186;11.526;2023-03-04T10:42:23;22.00;51.40
34640;DHT22;22600;48.186;11.526;2023-03-04T10:44:55;22.00;51.40
34640;DHT22;22600;48.186;11.526;2023-03-04T10:47:23;22.00;51.90
34640;DHT22;22600;48.186;11.526;2023-03-04T10:50:00;22.00;51.90
34640;DHT22;22600;48.186;11.526;2023-03-04T10:52:47;21.90;52.00
34640;DHT22;22600;48.186;11.526;2023-03-04T10:55:29;21.90;52.00
34640;DHT22;22600;48.186;11.526;2023-03-04T10:58:05;21.90;51.50
34640;DHT22;22600;48.186;11.526;2023-03-04T11:00:33;22.00;52.10
34640;DHT22;22600;48.186;11.526;2023-03-04T11:03:22;22.00;52.10
34640;DHT22;22600;48.186;11.526;2023-03-04T11:05:49;21.90;51.60
34640;DHT22;22600;48.186;11.526;2023-03-04T11:08:22;22.00;52.10
34640;DHT22;22600;48.186;11.526;2023-03-04T11:10:48;21.90;51.60
34640;DHT22;22600;48.186;11.526;2023-03-04T11:16:03;21.90;52.10
34640;DHT22;22600;48.186;11.526;2023-03-04T11:18:45;21.90;51.70
34640;DHT22;22600;48.186;11.526;2023-03-04T11:21:29;19.90;50.70
34640;DHT22;22600;48.186;11.526;2023-03-04T11:24:13;21.90;52.20
34640;DHT22;22600;48.186;11.526;2023-03-04T11:26:47;21.90;52.20
34640;DHT22;22600;48.186;11.526;2023-03-04T11:29:24;21.90;51.80
34640;DHT22;22600;48.186;11.526;2023-03-04T11:32:02;21.90;51.80
34640;DHT22;22600;48.186;11.526;2023-03-04T11:34:49;21.90;52.30
34640;DHT22;22600;48.186;11.526;2023-03-04T11:37:34;21.90;52.00
34640;DHT22;22600;48.186;11.526;2023-03-04T11:41:07;21.90;52.30
34640;DHT22;22600;48.186;11.526;2023-03-04T11:43:09;21.90;51.90
34640;DHT22;22600;48.186;11.526;2023-03-04T11:46:06;21.90;52.30
34640;DHT22;22600;48.186;11.526;2023-03-04T11:54:29;21.90;52.30
34640;DHT22;22600;48.186;11.526;2023-03-04T11:57:00;21.90;51.90
34640;DHT22;22600;48.186;11.526;2023-03-04T12:11:28;21.90;51.90
34640;DHT22;22600;48.186;11.526;2023-03-04T12:24:56;21.90;52.40
34640;DHT22;22600;48.186;11.526;2023-03-04T12:41:59;21.90;52.00
34640;DHT22;22600;48.186;11.526;2023-03-04T12:44:32;21.90;52.00
34640;DHT22;22600;48.186;11.526;2023-03-04T12:50:00;22.00;52.00
34640;DHT22;22600;48.186;11.526;2023-03-04T12:52:42;21.90;52.50
34640;DHT22;22600;48.186;11.526;2023-03-04T12:55:14;22.00;52.00
34640;DHT22;22600;48.186;11.526;2023-03-04T12:57:40;22.00;52.50
34640;DHT22;22600;48.186;11.526;2023-03-04T13:02:53;22.00;52.00
34640;DHT22;22600;48.186;11.526;2023-03-04T13:05:43;22.00;52.50
34640;DHT22;22600;48.186;11.526;2023-03-04T13:10:51;22.00;52.00
34640;DHT22;22600;48.186;11.526;2023-03-04T13:16:05;22.00;52.00
34640;DHT22;22600;48.186;11.526;2023-03-04T13:18:34;22.00;52.00
34640;DHT22;22600;48.186;11.526;2023-03-04T13:23:39;22.00;52.40
34640;DHT22;22600;48.186;11.526;2023-03-04T13:26:16;22.00;52.50
34640;DHT22;22600;48.186;11.526;2023-03-04T13:28:43;22.10;52.50
34640;DHT22;22600;48.186;11.526;2023-03-04T13:31:16;22.00;52.00
34640;DHT22;22600;48.186;11.526;2023-03-04T13:33:56;22.00;52.50
34640;DHT22;22600;48.186;11.526;2023-03-04T13:36:52;22.00;52.50
34640;DHT22;22600;48.186;11.526;2023-03-04T13:41:49;22.00;52.00
34640;DHT22;22600;48.186;11.526;2023-03-04T13:47:09;22.00;52.40
34640;DHT22;22600;48.186;11.526;2023-03-04T13:49:38;22.00;52.00
34640;DHT22;22600;48.186;11.526;2023-03-04T13:52:32;22.00;52.00
34640;DHT22;22600;48.186;11.526;2023-03-04T13:57:57;22.00;52.50
34640;DHT22;22600;48.186;11.526;2023-03-04T14:00:24;22.10;52.50
34640;DHT22;22600;48.186;11.526;2023-03-04T14:02:50;22.00;52.50
34640;DHT22;22600;48.186;11.526;2023-03-04T14:05:15;22.00;52.50
34640;DHT22;22600;48.186;11.526;2023-03-04T14:07:41;22.00;52.50
34640;DHT22;22600;48.186;11.526;2023-03-04T14:12:54;22.10;52.50
34640;DHT22;22600;48.186;11.526;2023-03-04T14:15:26;22.00;52.50
34640;DHT22;22600;48.186;11.526;2023-03-04T14:17:57;22.00;52.40
34640;DHT22;22600;48.186;11.526;2023-03-04T14:22:51;22.00;52.00
34640;DHT22;22600;48.186;11.526;2023-03-04T14:25:38;22.00;52.40
34640;DHT22;22600;48.186;11.526;2023-03-04T14:28:12;22.00;52.00
34640;DHT22;22600;48.186;11.526;2023-03-04T14:30:39;22.00;52.40
34640;DHT22;22600;48.186;11.526;2023-03-04T14:33:07;22.00;52.40
34640;DHT22;22600;48.186;11.526;2023-03-04T14:35:33;22.00;52.40
34640;DHT22;22600;48.186;11.526;2023-03-04T14:38:04;22.00;52.00
34640;DHT22;22600;48.186;11.526;2023-03-04T14:40:32;22.00;52.40
34640;DHT22;22600;48.186;11.526;2023-03-04T14:43:03;22.00;52.00
34640;DHT22;22600;48.186;11.526;2023-03-04T14:45:30;22.00;52.50
34640;DHT22;22600;48.186;11.526;2023-03-04T14:48:04;22.00;52.50
34640;DHT22;22600;48.186;11.526;2023-03-04T14:50:31;22.00;52.50
34640;DHT22;22600;48.186;11.526;2023-03-04T14:55:35;22.00;52.00
34640;DHT22;22600;48.186;11.526;2023-03-04T14:58:18;22.00;52.50
34640;DHT22;22600;48.186;11.526;2023-03-04T15:00:45;22.00;52.60
34640;DHT22;22600;48.186;11.526;2023-03-04T15:03:24;22.10;52.60
34640;DHT22;22600;48.186;11.526;2023-03-04T15:05:50;22.00;52.00
34640;DHT22;22600;48.186;11.526;2023-03-04T15:08:19;22.00;52.50
34640;DHT22;22600;48.186;11.526;2023-03-04T15:10:54;22.00;52.10
34640;DHT22;22600;48.186;11.526;2023-03-04T15:13:40;22.00;52.10
34640;DHT22;22600;48.186;11.526;2023-03-04T15:16:06;22.00;52.50
34640;DHT22;22600;48.186;11.526;2023-03-04T15:18:32;22.00;52.10
34640;DHT22;22600;48.186;11.526;2023-03-04T15:21:01;22.00;52.10
34640;DHT22;22600;48.186;11.526;2023-03-04T15:23:29;22.00;52.10
34640;DHT22;22600;48.186;11.526;2023-03-04T15:26:04;22.00;52.60
34640;DHT22;22600;48.186;11.526;2023-03-04T15:28:38;22.00;52.10
34640;DHT22;22600;48.186;11.526;2023-03-04T15:31:04;21.90;52.50
34640;DHT22;22600;48.186;11.526;2023-03-04T15:33:30;22.00;52.10
34640;DHT22;22600;48.186;11.526;2023-03-04T15:35:58;22.00;52.10
34640;DHT22;22600;48.186;11.526;2023-03-04T15:38:24;22.00;53.20
34640;DHT22;22600;48.186;11.526;2023-03-04T15:40:50;22.00;52.60
34640;DHT22;22600;48.186;11.526;2023-03-04T15:43:18;22.00;52.60
34640;DHT22;22600;48.186;11.526;2023-03-04T15:45:45;22.00;52.60
34640;DHT22;22600;48.186;11.526;2023-03-04T15:48:13;22.00;52.60
34640;DHT22;22600;48.186;11.526;2023-03-04T15:50:44;22.00;52.60
34640;DHT22;22600;48.186;11.526;2023-03-04T15:53:24;22.00;52.60
34640;DHT22;22600;48.186;11.526;2023-03-04T15:55:50;22.00;52.50
34640;DHT22;22600;48.186;11.526;2023-03-04T15:58:15;22.00;52.60
34640;DHT22;22600;48.186;11.526;2023-03-04T16:00:41;22.00;52.10
34640;DHT22;22600;48.186;11.526;2023-03-04T16:03:15;22.00;52.60
34640;DHT22;22600;48.186;11.526;2023-03-04T16:05:41;22.00;52.60
34640;DHT22;22600;48.186;11.526;2023-03-04T16:08:11;21.90;52.10
34640;DHT22;22600;48.186;11.526;2023-03-04T16:10:37;22.00;52.00
34640;DHT22;22600;48.186;11.526;2023-03-04T16:13:03;22.00;52.10
34640;DHT22;22600;48.186;11.526;2023-03-04T16:15:29;22.00;52.10
34640;DHT22;22600;48.186;11.526;2023-03-04T16:17:55;22.00;52.10
34640;DHT22;22600;48.186;11.526;2023-03-04T16:20:28;21.90;52.50
34640;DHT22;22600;48.186;11.526;2023-03-04T16:22:57;21.90;52.50
34640;DHT22;22600;48.186;11.526;2023-03-04T16:25:24;22.00;52.60
34640;DHT22;22600;48.186;11.526;2023-03-04T16:27:51;21.90;52.50
34640;DHT22;22600;48.186;11.526;2023-03-04T16:30:20;22.00;52.50
34640;DHT22;22600;48.186;11.526;2023-03-04T16:32:46;21.90;52.00
34640;DHT22;22600;48.186;11.526;2023-03-04T16:35:12;21.90;52.50
34640;DHT22;22600;48.186;11.526;2023-03-04T16:37:39;21.90;52.00
34640;DHT22;22600;48.186;11.526;2023-03-04T16:40:05;21.90;52.00
34640;DHT22;22600;48.186;11.526;2023-03-04T16:42:32;21.90;52.50
34640;DHT22;22600;48.186;11.526;2023-03-04T16:44:57;21.90;52.00
34640;DHT22;22600;48.186;11.526;2023-03-04T16:47:23;21.90;52.50
34640;DHT22;22600;48.186;11.526;2023-03-04T16:49:49;21.90;52.40
34640;DHT22;22600;48.186;11.526;2023-03-04T16:52:22;21.90;52.50
34640;DHT22;22600;48.186;11.526;2023-03-04T16:54:49;21.90;52.40
34640;DHT22;22600;48.186;11.526;2023-03-04T16:57:15;21.90;52.50
34640;DHT22;22600;48.186;11.526;2023-03-04T16:59:40;21.90;52.00